Terminal Aerodrome Forecast
Issued by NWS

Home | Current Version | Previous Version | Text Only | Print | Product List | Glossary On
Versions: 1 2 3 4 5 6 7 8 9 10 11 12 13 14 15 16 17 18 19
597
FTUS43 KDVN 261726
TAFBRL
TAF
KBRL 261726Z 2618/2718 15005KT P6SM VCTS SCT025CB OVC040
      TEMPO 2618/2619 3SM TSRA BR BKN025CB
     FM261900 VRB04KT P6SM SCT030 BKN070
     FM270000 34004KT P6SM SCT070
     FM270900 VRB03KT 4SM BR SCT080
     FM271400 11005KT 6SM BR BKN200=

USA.gov is the U.S. government's official web portal to all federal, state and local government web resources and services.